Time;durP1;ratioP1;P1;durP2;ratioP2;P2;SDS_P1;SDS_P2;PMS_P1;PMS_P2;Temp;Humidity;BMP_temperature;BMP_pressure;BME280_temperature;BME280_humidity;BME280_pressure;Samples;Min_cycle;Max_cycle;Signal;HPM_P1;HPM_P2
2022/05/31 00:02:03;;;;;;;5.03;2.53;;;22.10;51.70;;;;;;6156884;28;80313;-67
2022/05/31 00:05:03;;;;;;;5.28;3.00;;;22.00;51.70;;;;;;6162356;28;80338;-67
2022/05/31 00:08:04;;;;;;;3.95;3.03;;;22.10;52.00;;;;;;6160841;28;80361;-67
2022/05/31 00:11:04;;;;;;;5.72;2.97;;;22.00;51.70;;;;;;6162523;28;80821;-67
2022/05/31 00:14:05;;;;;;;3.80;2.85;;;22.00;51.90;;;;;;6160845;28;80579;-67
2022/05/31 00:17:05;;;;;;;5.28;3.35;;;22.00;51.70;;;;;;6159875;28;80876;-67
2022/05/31 00:20:06;;;;;;;6.72;3.33;;;22.00;51.70;;;;;;6159633;28;80267;-67
2022/05/31 00:23:07;;;;;;;5.05;3.30;;;22.00;51.70;;;;;;6161411;28;80280;-68
2022/05/31 00:26:08;;;;;;;5.78;3.70;;;22.00;51.60;;;;;;6160608;28;80541;-67
2022/05/31 00:29:08;;;;;;;4.15;3.10;;;22.00;51.80;;;;;;6161807;28;80452;-66
2022/05/31 00:32:09;;;;;;;5.20;3.13;;;22.00;51.70;;;;;;6161686;28;87442;-67
2022/05/31 00:35:09;;;;;;;5.75;3.30;;;22.00;51.70;;;;;;6158434;28;83559;-65
2022/05/31 00:38:10;;;;;;;8.13;3.80;;;22.00;51.70;;;;;;6158172;28;82766;-66
2022/05/31 00:41:23;;;;;;;5.18;3.50;;;22.00;51.90;;;;;;6158847;28;80438;-67
2022/05/31 00:44:27;;;;;;;3.83;2.97;;;22.00;52.00;;;;;;6155006;28;80964;-67
2022/05/31 00:47:27;;;;;;;7.38;3.70;;;22.00;51.70;;;;;;6152854;28;80558;-67
2022/05/31 00:50:28;;;;;;;5.43;3.58;;;22.00;52.10;;;;;;6155262;28;81557;-67
2022/05/31 00:53:29;;;;;;;5.20;3.03;;;22.00;51.80;;;;;;6157787;28;82872;-67
2022/05/31 00:56:29;;;;;;;5.97;3.47;;;22.00;51.90;;;;;;6159596;28;81023;-67
2022/05/31 00:59:30;;;;;;;6.07;3.72;;;22.00;51.70;;;;;;6151822;28;83415;-67
2022/05/31 01:02:30;;;;;;;6.13;3.20;;;22.00;51.80;;;;;;6157014;28;80611;-67
2022/05/31 01:05:31;;;;;;;4.57;3.25;;;22.00;51.70;;;;;;6157245;28;81462;-67
2022/05/31 01:08:32;;;;;;;5.45;3.30;;;22.00;51.60;;;;;;6156754;28;81416;-67
2022/05/31 01:11:52;;;;;;;6.03;3.78;;;22.00;51.70;;;;;;6155205;28;81215;-67
2022/05/31 01:15:13;;;;;;;6.20;3.47;;;22.00;51.90;;;;;;6155168;28;85112;-68
2022/05/31 01:18:40;;;;;;;6.43;3.10;;;22.00;52.00;;;;;;6152502;28;80691;-67
2022/05/31 01:22:09;;;;;;;6.13;3.60;;;22.00;51.80;;;;;;6158430;28;87718;-67
2022/05/31 01:25:14;;;;;;;8.80;4.43;;;22.00;51.60;;;;;;6159506;28;83646;-67
2022/05/31 01:28:16;;;;;;;6.93;4.05;;;22.00;51.70;;;;;;6155257;28;82225;-67
2022/05/31 01:31:17;;;;;;;5.80;3.95;;;22.00;51.60;;;;;;6158575;28;80328;-66
2022/05/31 01:34:22;;;;;;;4.63;2.97;;;22.00;51.50;;;;;;6158263;28;80513;-66
2022/05/31 01:37:23;;;;;;;7.28;4.32;;;21.90;51.70;;;;;;6157530;28;82855;-67
2022/05/31 01:40:24;;;;;;;7.55;4.18;;;21.90;51.60;;;;;;6155576;28;80842;-67
2022/05/31 01:43:24;;;;;;;8.32;3.83;;;21.90;51.60;;;;;;6159616;28;80417;-67
2022/05/31 01:46:25;;;;;;;5.43;3.50;;;22.00;51.50;;;;;;6155866;28;83386;-67
2022/05/31 01:49:25;;;;;;;6.63;4.05;;;21.90;51.70;;;;;;6156963;28;80410;-66
2022/05/31 01:52:26;;;;;;;8.07;4.13;;;21.90;51.80;;;;;;6149909;28;80294;-67
2022/05/31 01:55:27;;;;;;;6.28;4.05;;;21.90;51.70;;;;;;6156415;28;81497;-67
2022/05/31 01:58:27;;;;;;;7.35;4.43;;;21.90;51.50;;;;;;6157581;28;80611;-67
2022/05/31 02:01:28;;;;;;;7.38;4.07;;;21.90;51.50;;;;;;6150955;28;83336;-66
2022/05/31 02:04:28;;;;;;;5.85;3.92;;;21.90;51.50;;;;;;6157597;28;80359;-66
2022/05/31 02:07:30;;;;;;;8.50;4.07;;;21.90;51.80;;;;;;6149240;28;83277;-67
2022/05/31 02:10:34;;;;;;;8.20;3.83;;;21.90;51.70;;;;;;6157597;28;82801;-67
2022/05/31 02:13:38;;;;;;;7.88;4.10;;;21.90;51.50;;;;;;6156580;28;83296;-67
2022/05/31 02:16:42;;;;;;;7.68;4.03;;;21.90;51.60;;;;;;6155527;28;83406;-67
2022/05/31 02:20:02;;;;;;;5.10;3.47;;;21.90;51.50;;;;;;6155821;28;80058;-67
2022/05/31 02:23:07;;;;;;;4.72;3.20;;;21.90;51.50;;;;;;6156171;28;81676;-67
2022/05/31 02:26:08;;;;;;;6.65;3.80;;;21.90;51.30;;;;;;6156935;28;80587;-67
2022/05/31 02:29:09;;;;;;;6.35;4.13;;;21.90;51.50;;;;;;6151119;28;82318;-67
2022/05/31 02:32:09;;;;;;;8.68;4.50;;;21.90;51.40;;;;;;6154415;28;83383;-66
2022/05/31 02:35:10;;;;;;;6.50;3.88;;;21.90;51.40;;;;;;6155868;28;80373;-66
2022/05/31 02:38:11;;;;;;;5.55;3.42;;;21.90;51.50;;;;;;6159016;28;80208;-66
2022/05/31 02:41:11;;;;;;;9.13;4.40;;;21.90;52.00;;;;;;6152885;28;83553;-67
2022/05/31 02:44:12;;;;;;;13.45;3.80;;;21.90;51.30;;;;;;6153808;28;82051;-67
2022/05/31 02:47:14;;;;;;;6.70;4.10;;;21.90;51.50;;;;;;6151635;28;83590;-66
2022/05/31 02:50:15;;;;;;;5.85;3.67;;;21.90;51.20;;;;;;6147764;28;82956;-66
2022/05/31 02:53:15;;;;;;;7.63;3.97;;;21.90;51.30;;;;;;6151808;28;80904;-66
2022/05/31 02:56:16;;;;;;;7.65;4.20;;;21.80;51.50;;;;;;6154143;28;83812;-66
2022/05/31 02:59:35;;;;;;;7.25;4.18;;;21.90;51.80;;;;;;6156885;28;80494;-66
2022/05/31 03:02:58;;;;;;;6.45;3.90;;;21.80;51.20;;;;;;6145435;28;81097;-66
2022/05/31 03:06:18;;;;;;;8.48;4.47;;;21.90;51.60;;;;;;6158864;28;79957;-66
2022/05/31 03:09:30;;;;;;;5.85;3.83;;;21.90;51.40;;;;;;6153022;28;83276;-65
2022/05/31 03:12:30;;;;;;;5.75;3.78;;;21.90;51.50;;;;;;6156043;28;82868;-66
2022/05/31 03:15:31;;;;;;;6.65;4.10;;;21.90;51.20;;;;;;6145306;28;83097;-66
2022/05/31 03:18:32;;;;;;;8.27;3.78;;;21.90;51.50;;;;;;6150124;28;80325;-66
2022/05/31 03:21:33;;;;;;;5.97;4.05;;;21.90;51.40;;;;;;6156069;28;83010;-66
2022/05/31 03:24:33;;;;;;;6.72;4.10;;;21.90;51.50;;;;;;6158211;28;80419;-66
2022/05/31 03:27:34;;;;;;;6.82;3.95;;;21.90;51.30;;;;;;6158396;28;82522;-66
2022/05/31 03:30:36;;;;;;;5.40;3.50;;;21.90;51.40;;;;;;6155216;28;81622;-66
2022/05/31 03:33:37;;;;;;;7.38;4.00;;;21.90;51.40;;;;;;6154879;28;80474;-66
2022/05/31 03:36:38;;;;;;;7.13;4.10;;;21.80;51.40;;;;;;6156477;28;80723;-66
2022/05/31 03:39:44;;;;;;;8.20;4.07;;;21.80;51.40;;;;;;6143499;28;87437;-67
2022/05/31 03:42:45;;;;;;;6.53;4.18;;;21.80;51.50;;;;;;6151151;28;82602;-67
2022/05/31 03:45:46;;;;;;;8.38;4.15;;;21.80;51.60;;;;;;6137102;28;82723;-67
2022/05/31 03:49:15;;;;;;;5.93;3.72;;;21.80;51.50;;;;;;6128169;28;81433;-67
2022/05/31 03:52:29;;;;;;;5.70;3.78;;;21.80;51.40;;;;;;6150135;28;83111;-69
2022/05/31 03:55:29;;;;;;;4.70;3.88;;;21.80;51.50;;;;;;6141454;28;83150;-66
2022/05/31 03:58:32;;;;;;;8.48;3.97;;;21.80;51.70;;;;;;6148393;28;83297;-69
2022/05/31 04:01:46;;;;;;;8.70;4.05;;;21.80;51.90;;;;;;6140262;28;83272;-67
2022/05/31 04:04:46;;;;;;;8.02;3.88;;;21.80;51.90;;;;;;6151124;28;83374;-68
2022/05/31 04:07:47;;;;;;;10.43;4.55;;;21.80;52.30;;;;;;6149291;28;83456;-68
2022/05/31 04:10:47;;;;;;;7.25;4.00;;;21.90;52.70;;;;;;6153270;28;83294;-67
2022/05/31 04:13:48;;;;;;;8.20;4.57;;;21.90;52.60;;;;;;6149030;28;82816;-67
2022/05/31 04:17:12;;;;;;;6.22;4.10;;;21.90;52.50;;;;;;6144480;28;81908;-67
2022/05/31 04:20:13;;;;;;;10.23;4.22;;;22.00;52.80;;;;;;6155470;28;83196;-67
2022/05/31 04:26:51;;;;;;;7.20;4.38;;;21.90;52.90;;;;;;6154565;28;80590;-66
2022/05/31 04:30:10;;;;;;;10.20;4.90;;;22.00;53.50;;;;;;6159312;28;81324;-66
2022/05/31 04:33:29;;;;;;;8.20;4.03;;;22.00;53.60;;;;;;6161940;28;80647;-67
2022/05/31 04:36:30;;;;;;;6.85;3.80;;;22.00;53.10;;;;;;6155832;28;81684;-64
2022/05/31 04:39:31;;;;;;;6.95;3.92;;;22.00;53.50;;;;;;6155614;28;82206;-64
2022/05/31 04:42:37;;;;;;;17.10;4.50;;;22.00;53.80;;;;;;6159024;28;80798;-64
2022/05/31 04:45:38;;;;;;;8.02;4.63;;;22.10;53.70;;;;;;6159956;28;82174;-65
2022/05/31 04:49:05;;;;;;;6.90;3.97;;;22.10;53.40;;;;;;6153989;28;85158;-68
2022/05/31 04:52:06;;;;;;;7.30;4.05;;;22.10;53.30;;;;;;6157117;28;82791;-67
2022/05/31 04:55:10;;;;;;;7.53;4.15;;;22.00;53.50;;;;;;6152568;28;81528;-67
2022/05/31 04:58:16;;;;;;;9.07;4.78;;;22.00;54.30;;;;;;6139146;28;82006;-67
2022/05/31 05:01:16;;;;;;;11.68;4.63;;;22.10;54.20;;;;;;6158867;28;83503;-68
2022/05/31 05:04:20;;;;;;;9.45;4.38;;;22.10;54.10;;;;;;6155066;28;81564;-69
2022/05/31 05:07:27;;;;;;;15.02;4.88;;;22.10;54.10;;;;;;6153412;28;83157;-70
2022/05/31 05:10:27;;;;;;;17.15;4.85;;;22.10;53.90;;;;;;6151788;28;83085;-70
2022/05/31 05:13:37;;;;;;;9.90;4.10;;;22.10;54.00;;;;;;6151329;28;81961;-69
2022/05/31 05:17:04;;;;;;;25.83;4.60;;;22.10;53.90;;;;;;6156074;28;80283;-68
2022/05/31 05:20:09;;;;;;;15.75;4.95;;;22.10;54.10;;;;;;6157600;28;83365;-68
2022/05/31 05:23:10;;;;;;;12.63;4.57;;;22.10;53.80;;;;;;6157651;28;82490;-68
2022/05/31 05:26:12;;;;;;;8.38;4.22;;;22.10;53.70;;;;;;6154593;28;82387;-69
2022/05/31 05:32:41;;;;;;;7.68;4.00;;;22.10;53.80;;;;;;6153129;28;83340;-69
2022/05/31 05:35:48;;;;;;;8.77;4.38;;;22.10;53.70;;;;;;6149886;28;83563;-68
2022/05/31 05:38:48;;;;;;;13.65;4.55;;;22.10;53.30;;;;;;6151361;28;83271;-69
2022/05/31 05:42:09;;;;;;;16.58;4.25;;;22.10;53.30;;;;;;6150735;28;87402;-69
2022/05/31 05:45:18;;;;;;;7.25;4.55;;;22.10;53.20;;;;;;6153382;28;80313;-69
2022/05/31 05:48:20;;;;;;;14.63;4.53;;;22.10;53.40;;;;;;6153253;28;81487;-69
2022/05/31 05:51:20;;;;;;;8.15;3.75;;;22.10;53.30;;;;;;6155609;28;83056;-69
2022/05/31 05:54:53;;;;;;;12.38;4.35;;;22.10;53.10;;;;;;6152941;28;80536;-69
2022/05/31 05:58:12;;;;;;;6.07;3.80;;;22.10;52.90;;;;;;6159364;28;80434;-69
2022/05/31 06:01:31;;;;;;;7.20;3.35;;;22.10;52.80;;;;;;6146411;28;83504;-69
2022/05/31 06:04:40;;;;;;;6.68;3.75;;;22.10;53.10;;;;;;6158505;28;82106;-69
2022/05/31 06:07:41;;;;;;;5.78;3.53;;;22.10;53.00;;;;;;6158577;28;80738;-69
2022/05/31 06:10:41;;;;;;;8.07;4.00;;;22.10;53.40;;;;;;6157300;28;83167;-69
2022/05/31 06:13:42;;;;;;;8.98;3.92;;;22.10;52.90;;;;;;6152638;28;80289;-69
2022/05/31 06:16:42;;;;;;;6.88;3.65;;;22.10;52.90;;;;;;6153855;28;83706;-69
2022/05/31 06:19:43;;;;;;;5.93;3.88;;;22.10;53.00;;;;;;6157850;28;80364;-69
2022/05/31 06:22:44;;;;;;;7.10;3.85;;;22.10;52.80;;;;;;6153935;28;81138;-69
2022/05/31 06:25:50;;;;;;;8.20;4.28;;;22.10;52.80;;;;;;6152144;28;84784;-69
2022/05/31 06:29:06;;;;;;;10.02;3.83;;;22.10;53.00;;;;;;6148636;28;81739;-69
2022/05/31 06:32:07;;;;;;;12.27;4.38;;;22.10;52.90;;;;;;6138493;28;83289;-69
2022/05/31 06:35:13;;;;;;;9.13;4.13;;;22.10;52.80;;;;;;6157017;28;83396;-69
2022/05/31 06:38:33;;;;;;;6.03;3.95;;;22.10;52.70;;;;;;6156397;28;80893;-69
2022/05/31 06:41:34;;;;;;;10.02;4.43;;;22.10;53.00;;;;;;6154023;28;83712;-69
2022/05/31 06:44:40;;;;;;;8.63;3.80;;;22.10;52.60;;;;;;6153844;28;81501;-68
2022/05/31 06:48:00;;;;;;;8.00;3.58;;;22.10;52.80;;;;;;6156539;28;80572;-69
2022/05/31 06:56:48;;;;;;;5.00;3.50;;;22.10;52.70;;;;;;6153385;28;80427;-69
2022/05/31 06:58:20;;;;;;;13.63;4.18;;;22.10;52.80;;;;;;6154889;28;81119;-69
2022/05/31 07:01:35;;;;;;;5.60;3.75;;;22.10;52.70;;;;;;6154677;28;82191;-69
2022/05/31 07:04:36;;;;;;;5.90;3.60;;;22.10;52.60;;;;;;6150789;28;83381;-69
2022/05/31 07:07:37;;;;;;;7.18;3.97;;;22.10;52.60;;;;;;6156667;28;83048;-69
2022/05/31 07:10:58;;;;;;;4.68;3.40;;;22.10;52.70;;;;;;6147270;28;85946;-69
2022/05/31 07:14:13;;;;;;;7.15;3.60;;;22.10;52.70;;;;;;6151373;28;80383;-69
2022/05/31 07:17:49;;;;;;;4.35;3.10;;;22.10;52.60;;;;;;6156765;28;80446;-69
2022/05/31 07:20:51;;;;;;;9.05;3.50;;;22.20;52.80;;;;;;6153499;28;82932;-69
2022/05/31 07:23:53;;;;;;;7.18;3.55;;;22.20;53.40;;;;;;6153455;28;83417;-70
2022/05/31 07:26:55;;;;;;;6.80;4.00;;;22.20;52.80;;;;;;6151533;28;82107;-69
2022/05/31 07:29:55;;;;;;;6.13;3.67;;;22.20;52.60;;;;;;6154106;28;83480;-69
2022/05/31 07:32:56;;;;;;;5.63;3.30;;;22.20;52.80;;;;;;6135423;28;82848;-69
2022/05/31 07:35:56;;;;;;;7.20;3.58;;;22.20;52.80;;;;;;6154366;28;81870;-69
2022/05/31 07:38:58;;;;;;;5.18;3.35;;;22.20;52.60;;;;;;6151651;28;82718;-69
2022/05/31 07:41:59;;;;;;;7.90;3.90;;;22.20;52.60;;;;;;6151762;28;80340;-70
2022/05/31 07:45:00;;;;;;;6.05;3.40;;;22.20;52.70;;;;;;6150422;28;83595;-70
2022/05/31 07:48:01;;;;;;;7.35;3.78;;;22.30;52.70;;;;;;6152212;28;81735;-71
2022/05/31 07:51:03;;;;;;;5.20;3.65;;;22.30;52.60;;;;;;6156042;28;82133;-70
2022/05/31 07:54:26;;;;;;;7.22;3.97;;;22.30;52.90;;;;;;6153638;28;81437;-70
2022/05/31 08:01:17;;;;;;;7.18;3.35;;;22.30;52.80;;;;;;6151925;28;80280;-70
2022/05/31 08:04:20;;;;;;;5.43;3.30;;;22.30;52.90;;;;;;6158827;28;83159;-71
2022/05/31 08:07:21;;;;;;;5.85;3.70;;;22.30;52.80;;;;;;6160730;28;80855;-69
2022/05/31 08:10:22;;;;;;;8.18;4.10;;;22.30;52.80;;;;;;6152408;28;81180;-66
2022/05/31 08:13:22;;;;;;;5.10;3.58;;;22.30;52.30;;;;;;6154787;28;81487;-68
2022/05/31 08:16:23;;;;;;;5.85;3.70;;;22.30;52.20;;;;;;6136722;28;81873;-69
2022/05/31 08:19:23;;;;;;;5.25;3.65;;;22.20;53.20;;;;;;6157649;28;80951;-65
2022/05/31 08:22:24;;;;;;;6.05;4.28;;;22.20;52.80;;;;;;6144768;28;80341;-65
2022/05/31 08:25:24;;;;;;;6.82;4.57;;;22.10;51.70;;;;;;6150672;28;81211;-67
2022/05/31 08:28:24;;;;;;;6.97;4.28;;;22.20;51.70;;;;;;6159227;28;80652;-68
2022/05/31 08:31:25;;;;;;;7.75;4.10;;;22.30;52.00;;;;;;6152209;28;80382;-68
2022/05/31 08:34:26;;;;;;;7.20;3.97;;;22.30;51.30;;;;;;6149648;28;80815;-68
2022/05/31 08:37:27;;;;;;;9.55;4.90;;;22.30;50.90;;;;;;6155381;28;80935;-68
2022/05/31 08:40:27;;;;;;;6.60;4.18;;;22.30;50.10;;;;;;6154303;28;83149;-68
2022/05/31 08:43:28;;;;;;;7.22;4.07;;;22.20;49.20;;;;;;6151106;28;80737;-68
2022/05/31 08:46:28;;;;;;;6.05;3.85;;;22.20;50.00;;;;;;6152319;28;80674;-67
2022/05/31 08:51:52;;;;;;;8.68;3.80;;;22.20;50.00;;;;;;6155304;28;80898;-67
2022/05/31 08:52:49;;;;;;;9.35;3.95;;;22.20;50.40;;;;;;6146315;28;80877;-70
2022/05/31 08:59:10;;;;;;;6.28;3.53;;;22.20;50.40;;;;;;6155314;28;87031;-71
2022/05/31 09:02:11;;;;;;;5.30;3.05;;;22.20;50.60;;;;;;6147624;28;83864;-69
2022/05/31 09:05:13;;;;;;;5.57;3.80;;;22.30;50.00;;;;;;6141099;28;80753;-68
2022/05/31 09:08:13;;;;;;;5.18;3.13;;;22.20;50.30;;;;;;6148583;28;80511;-70
2022/05/31 09:11:14;;;;;;;5.93;2.95;;;22.30;50.50;;;;;;6147770;28;80239;-73
2022/05/31 09:14:14;;;;;;;5.30;2.53;;;22.30;50.70;;;;;;6153627;28;81074;-65
2022/05/31 09:17:15;;;;;;;5.70;2.05;;;22.40;48.90;;;;;;6148330;28;80808;-66
2022/05/31 09:20:16;;;;;;;3.75;2.30;;;22.40;48.10;;;;;;6154849;28;80583;-65
2022/05/31 09:23:17;;;;;;;5.05;2.35;;;22.40;45.80;;;;;;6159458;28;80436;-68
2022/05/31 09:26:17;;;;;;;7.45;2.17;;;22.40;46.10;;;;;;6143236;28;80291;-68
2022/05/31 09:29:18;;;;;;;8.07;2.67;;;22.40;45.70;;;;;;6157273;28;80418;-68
2022/05/31 09:32:18;;;;;;;4.45;1.85;;;22.40;45.50;;;;;;6139357;28;80391;-70
2022/05/31 09:35:19;;;;;;;6.63;2.60;;;22.50;45.50;;;;;;6145797;28;80480;-70
2022/05/31 09:38:19;;;;;;;3.20;2.05;;;22.40;45.80;;;;;;6147512;28;81707;-70
2022/05/31 09:41:20;;;;;;;5.53;2.47;;;22.40;45.50;;;;;;6143492;28;80383;-72
2022/05/31 09:44:21;;;;;;;4.93;2.13;;;22.50;45.90;;;;;;6151928;28;80939;-68
2022/05/31 09:47:21;;;;;;;7.93;2.03;;;22.60;45.50;;;;;;6147000;28;80637;-68
2022/05/31 09:50:22;;;;;;;5.15;1.90;;;22.60;46.60;;;;;;6140139;28;81219;-69
2022/05/31 09:57:06;;;;;;;4.20;2.30;;;22.50;43.60;;;;;;6149791;28;81583;-70
2022/05/31 10:00:27;;;;;;;3.60;2.10;;;22.50;44.70;;;;;;6139536;28;81125;-70
2022/05/31 10:03:27;;;;;;;3.17;1.90;;;22.60;44.80;;;;;;6150925;28;80440;-71
2022/05/31 10:06:28;;;;;;;13.88;3.10;;;22.60;44.70;;;;;;6152251;28;80445;-72
2022/05/31 10:09:28;;;;;;;7.07;1.98;;;22.70;43.60;;;;;;6146128;28;80623;-71
2022/05/31 10:12:31;;;;;;;6.13;2.40;;;22.60;44.30;;;;;;6138072;28;80949;-70
2022/05/31 10:15:31;;;;;;;8.88;3.17;;;22.70;44.40;;;;;;6138886;28;80621;-71
2022/05/31 10:18:32;;;;;;;2.83;2.25;;;22.70;43.70;;;;;;6141471;28;81127;-71
2022/05/31 10:21:33;;;;;;;5.90;2.47;;;22.70;43.30;;;;;;6140186;28;80835;-71
2022/05/31 10:24:33;;;;;;;7.00;2.70;;;22.60;44.00;;;;;;6139651;28;80822;-71
2022/05/31 10:27:52;;;;;;;5.68;2.65;;;22.70;44.80;;;;;;6148630;28;81604;-69
2022/05/31 10:31:13;;;;;;;7.03;2.33;;;22.70;45.20;;;;;;6141751;28;81255;-68
2022/05/31 10:34:15;;;;;;;5.95;2.17;;;22.80;45.10;;;;;;6146883;28;81108;-69
2022/05/31 10:37:15;;;;;;;5.57;3.10;;;22.80;44.80;;;;;;6142834;28;80728;-72
2022/05/31 10:40:16;;;;;;;5.28;2.20;;;22.80;45.60;;;;;;6142212;28;81181;-71
2022/05/31 10:43:17;;;;;;;3.78;2.83;;;22.80;46.30;;;;;;6146861;28;80479;-74
2022/05/31 10:46:19;;;;;;;3.63;2.20;;;22.80;44.70;;;;;;6143762;28;80392;-73
2022/05/31 10:49:19;;;;;;;11.23;2.50;;;22.70;44.90;;;;;;6146022;28;81250;-73
2022/05/31 10:52:20;;;;;;;11.27;2.40;;;22.70;45.50;;;;;;6146467;28;80744;-73
2022/05/31 10:55:20;;;;;;;3.97;2.00;;;22.70;45.50;;;;;;6149757;28;80834;-72
2022/05/31 10:58:21;;;;;;;3.38;2.58;;;22.70;45.60;;;;;;6139286;28;80448;-73
2022/05/31 11:01:21;;;;;;;6.40;2.60;;;22.80;46.70;;;;;;6130478;28;83573;-73
2022/05/31 11:04:22;;;;;;;3.92;2.80;;;22.80;45.80;;;;;;6144931;28;80329;-72
2022/05/31 11:07:23;;;;;;;3.97;2.10;;;22.80;45.30;;;;;;6147379;28;80362;-72
2022/05/31 11:13:47;;;;;;;7.65;2.55;;;22.70;45.80;;;;;;6141236;28;82276;-72
2022/05/31 11:16:47;;;;;;;3.05;2.45;;;22.70;44.80;;;;;;6152032;28;80338;-72
2022/05/31 11:19:48;;;;;;;2.45;2.13;;;22.70;45.30;;;;;;6158391;28;80427;-73
2022/05/31 11:22:49;;;;;;;4.47;2.47;;;22.80;46.30;;;;;;6152806;28;80122;-72
2022/05/31 11:25:51;;;;;;;4.28;2.58;;;22.80;46.20;;;;;;6155547;28;80593;-72
2022/05/31 11:28:52;;;;;;;2.97;2.20;;;22.90;45.70;;;;;;6149407;28;80825;-72
2022/05/31 11:31:52;;;;;;;3.03;2.30;;;22.80;44.80;;;;;;6158003;28;80446;-72
2022/05/31 11:34:53;;;;;;;6.78;2.35;;;22.80;45.40;;;;;;6145787;28;80599;-72
2022/05/31 11:37:53;;;;;;;2.72;1.95;;;22.80;45.50;;;;;;6155057;28;82086;-73
2022/05/31 11:40:54;;;;;;;3.03;2.33;;;22.80;44.50;;;;;;6158458;28;80507;-73
2022/05/31 11:43:54;;;;;;;3.22;1.85;;;22.90;45.00;;;;;;6153453;28;80872;-72
2022/05/31 11:46:55;;;;;;;3.10;2.30;;;23.00;45.20;;;;;;6155481;28;81224;-72
2022/05/31 11:49:55;;;;;;;2.88;2.00;;;23.00;46.90;;;;;;6153741;28;81017;-70
2022/05/31 11:52:56;;;;;;;10.27;2.40;;;23.00;46.00;;;;;;6145934;28;80760;-70
2022/05/31 11:55:57;;;;;;;2.67;2.17;;;23.10;45.90;;;;;;6144367;28;84887;-68
2022/05/31 11:58:57;;;;;;;4.93;2.58;;;23.10;44.50;;;;;;6149033;28;80350;-71
2022/05/31 12:01:58;;;;;;;4.78;2.63;;;23.10;45.40;;;;;;6142213;28;80760;-70
2022/05/31 12:04:58;;;;;;;5.82;2.40;;;23.20;44.90;;;;;;6150108;28;80224;-70
2022/05/31 12:07:59;;;;;;;4.28;2.40;;;23.20;44.60;;;;;;6155565;28;80446;-69
2022/05/31 12:11:00;;;;;;;2.58;2.20;;;23.20;44.10;;;;;;6152104;28;81626;-70
2022/05/31 12:14:00;;;;;;;2.92;1.88;;;23.10;44.70;;;;;;6146394;28;80377;-70
2022/05/31 12:17:01;;;;;;;5.05;2.22;;;23.10;44.80;;;;;;6149578;28;80552;-70
2022/05/31 12:20:03;;;;;;;6.10;1.80;;;23.20;44.80;;;;;;6144961;28;81438;-71
2022/05/31 12:23:03;;;;;;;4.97;2.72;;;23.30;45.00;;;;;;6160433;28;80495;-69
2022/05/31 12:26:04;;;;;;;5.57;2.50;;;23.30;44.50;;;;;;6146767;28;80611;-69
2022/05/31 12:29:04;;;;;;;6.00;2.53;;;23.40;44.10;;;;;;6148403;28;81023;-70
2022/05/31 12:32:05;;;;;;;4.00;1.80;;;23.50;43.50;;;;;;6144834;28;80760;-69
2022/05/31 12:35:05;;;;;;;10.43;2.25;;;23.60;43.50;;;;;;6150321;28;80856;-69
2022/05/31 12:38:07;;;;;;;9.85;2.20;;;23.60;43.20;;;;;;6149747;28;80710;-70
2022/05/31 12:41:08;;;;;;;3.83;1.92;;;23.60;43.70;;;;;;6156863;28;80770;-70
2022/05/31 12:44:08;;;;;;;2.40;1.88;;;23.50;43.90;;;;;;6146354;28;80790;-71
2022/05/31 12:47:09;;;;;;;5.65;2.22;;;23.50;43.40;;;;;;6156629;28;80530;-71
2022/05/31 12:50:09;;;;;;;6.05;2.63;;;23.60;43.30;;;;;;6151855;28;80648;-69
2022/05/31 12:56:10;;;;;;;7.03;2.78;;;23.70;43.60;;;;;;6147333;28;81051;-65
2022/05/31 12:59:10;;;;;;;7.45;2.55;;;23.60;43.90;;;;;;6147222;28;81771;-67
2022/05/31 13:02:11;;;;;;;10.05;2.60;;;23.70;43.70;;;;;;6149603;28;80520;-67
2022/05/31 13:05:11;;;;;;;12.80;2.92;;;23.60;43.10;;;;;;6158634;28;80515;-67
2022/05/31 13:08:13;;;;;;;5.18;1.90;;;23.70;42.80;;;;;;6151832;28;80368;-67
2022/05/31 13:21:11;;;;;;;2.70;2.00;;;23.70;43.20;;;;;;6150486;28;80324;-67
2022/05/31 13:24:12;;;;;;;3.30;1.98;;;23.60;43.10;;;;;;6160745;28;80322;-67
2022/05/31 13:27:12;;;;;;;2.67;1.90;;;23.50;42.60;;;;;;6160237;28;80599;-67
2022/05/31 13:30:13;;;;;;;4.43;2.08;;;23.50;42.70;;;;;;6160930;28;80394;-67
2022/05/31 13:33:13;;;;;;;7.13;2.15;;;23.50;43.10;;;;;;6153755;28;80831;-67
2022/05/31 13:36:14;;;;;;;13.98;1.80;;;23.40;43.10;;;;;;6154776;28;80836;-67
2022/05/31 13:39:14;;;;;;;6.63;2.00;;;23.40;43.30;;;;;;6143782;28;80596;-67
2022/05/31 13:42:16;;;;;;;5.03;1.95;;;23.40;43.80;;;;;;6146495;28;80446;-66
2022/05/31 13:45:16;;;;;;;7.75;2.42;;;23.60;43.60;;;;;;6151916;28;80452;-64
2022/05/31 13:48:16;;;;;;;7.10;1.95;;;23.50;43.90;;;;;;6158275;28;81218;-66
2022/05/31 13:51:17;;;;;;;2.35;2.08;;;23.60;44.20;;;;;;6159573;28;81198;-65
2022/05/31 13:54:17;;;;;;;4.78;2.20;;;23.60;43.40;;;;;;6149707;28;80674;-66
2022/05/31 13:57:19;;;;;;;3.45;1.90;;;23.50;44.00;;;;;;6157819;28;80289;-67
2022/05/31 14:00:21;;;;;;;2.20;1.85;;;23.40;43.80;;;;;;6147333;28;80445;-67
2022/05/31 14:03:22;;;;;;;3.35;2.60;;;23.40;44.30;;;;;;6149238;28;80531;-64
2022/05/31 14:06:22;;;;;;;3.35;2.30;;;23.40;44.20;;;;;;6143465;28;80410;-68
2022/05/31 14:09:23;;;;;;;16.67;2.47;;;23.40;44.60;;;;;;6150573;28;80463;-69
2022/05/31 14:12:23;;;;;;;5.13;2.45;;;23.40;45.00;;;;;;6149604;28;80502;-68
2022/05/31 14:15:24;;;;;;;9.02;2.47;;;23.50;45.50;;;;;;6146665;28;81376;-68
2022/05/31 14:18:24;;;;;;;8.25;2.40;;;23.50;46.00;;;;;;6158141;28;80545;-68
2022/05/31 14:21:25;;;;;;;5.70;2.03;;;23.50;46.50;;;;;;6153119;28;80867;-67
2022/05/31 14:24:25;;;;;;;7.55;2.28;;;23.40;46.60;;;;;;6153925;28;80462;-67
2022/05/31 14:27:29;;;;;;;8.95;2.83;;;23.40;46.10;;;;;;6143099;28;80447;-67
2022/05/31 14:30:29;;;;;;;4.38;2.45;;;23.40;46.90;;;;;;6143546;28;80222;-63
2022/05/31 14:33:30;;;;;;;5.93;2.63;;;23.40;47.30;;;;;;6157976;28;80988;-67
2022/05/31 14:36:31;;;;;;;9.75;2.60;;;23.50;48.20;;;;;;6155448;28;80801;-67
2022/05/31 14:39:31;;;;;;;5.68;2.35;;;23.40;47.40;;;;;;6158492;28;80105;-70
2022/05/31 14:42:33;;;;;;;4.68;2.53;;;23.30;47.00;;;;;;6149858;28;80402;-72
2022/05/31 14:45:34;;;;;;;8.73;2.45;;;23.20;47.70;;;;;;6146370;28;83630;-72
2022/05/31 14:48:34;;;;;;;8.05;3.25;;;23.20;47.30;;;;;;6150245;28;83274;-72
2022/05/31 14:51:35;;;;;;;3.90;2.65;;;23.20;47.60;;;;;;6156915;28;80525;-73
2022/05/31 14:54:35;;;;;;;5.60;2.17;;;23.20;47.80;;;;;;6156579;28;80818;-73
2022/05/31 15:00:55;;;;;;;6.00;2.38;;;23.20;48.20;;;;;;6145094;28;80538;-73
2022/05/31 15:03:56;;;;;;;5.38;2.83;;;23.20;47.40;;;;;;6144398;28;83526;-72
2022/05/31 15:06:56;;;;;;;3.80;2.40;;;23.20;47.80;;;;;;6153862;28;80600;-73
2022/05/31 15:09:57;;;;;;;4.85;2.42;;;23.20;47.80;;;;;;6157432;28;80485;-73
2022/05/31 15:19:36;;;;;;;3.55;2.10;;;23.10;47.50;;;;;;6117089;28;80987;-73
2022/05/31 15:22:37;;;;;;;4.97;2.13;;;23.10;47.80;;;;;;6123823;28;80242;-73
2022/05/31 15:25:37;;;;;;;4.85;2.33;;;23.10;49.00;;;;;;6121729;28;81483;-73
2022/05/31 15:28:38;;;;;;;3.28;1.90;;;23.10;47.90;;;;;;6121226;28;80391;-73
2022/05/31 15:31:38;;;;;;;3.85;2.20;;;23.20;48.20;;;;;;6121644;28;80237;-73
2022/05/31 15:34:39;;;;;;;5.05;2.10;;;23.20;49.10;;;;;;6124706;28;80456;-73
2022/05/31 15:37:39;;;;;;;2.72;1.98;;;23.20;47.90;;;;;;6123038;28;80404;-73
2022/05/31 15:40:40;;;;;;;3.03;2.25;;;23.10;48.20;;;;;;6114918;28;81420;-73
2022/05/31 15:43:52;;;;;;;3.92;1.73;;;23.10;48.00;;;;;;6133500;28;80200;-73
2022/05/31 15:46:53;;;;;;;4.65;2.42;;;23.10;48.70;;;;;;6128890;28;80889;-74
2022/05/31 15:49:54;;;;;;;8.93;2.75;;;23.10;48.00;;;;;;6124782;28;80293;-73
2022/05/31 15:52:54;;;;;;;4.32;2.53;;;23.10;48.60;;;;;;6130240;28;80965;-73
2022/05/31 15:55:55;;;;;;;7.88;2.08;;;23.10;48.20;;;;;;6131273;28;81194;-72
2022/05/31 15:58:55;;;;;;;4.40;2.22;;;23.10;48.20;;;;;;6133604;28;80318;-73
2022/05/31 16:01:56;;;;;;;8.27;2.25;;;23.10;48.10;;;;;;6122469;28;80537;-73
2022/05/31 16:04:57;;;;;;;3.33;2.00;;;23.00;47.80;;;;;;6131300;28;80940;-68
2022/05/31 16:07:57;;;;;;;3.20;2.20;;;23.00;48.10;;;;;;6124938;28;80839;-70
2022/05/31 16:10:58;;;;;;;3.03;2.00;;;23.00;48.30;;;;;;6119967;28;80468;-74
2022/05/31 16:13:58;;;;;;;5.55;2.10;;;23.10;48.60;;;;;;6113315;28;83490;-72
2022/05/31 16:16:59;;;;;;;4.53;2.13;;;23.00;48.90;;;;;;6121876;28;80794;-72
2022/05/31 16:20:00;;;;;;;3.53;2.13;;;23.00;49.30;;;;;;6133215;28;80334;-72
2022/05/31 16:23:01;;;;;;;5.15;2.30;;;23.00;50.20;;;;;;6115360;28;80572;-73
2022/05/31 16:26:01;;;;;;;5.63;2.53;;;23.00;50.20;;;;;;6152813;28;80663;-70
2022/05/31 16:29:07;;;;;;;5.47;2.70;;;23.10;50.70;;;;;;6144774;28;80369;-71
2022/05/31 16:32:08;;;;;;;6.75;2.30;;;23.10;50.70;;;;;;6145801;28;80630;-73
2022/05/31 16:35:09;;;;;;;7.25;3.28;;;23.00;50.40;;;;;;6145337;28;80406;-72
2022/05/31 16:41:29;;;;;;;6.32;2.63;;;23.10;50.50;;;;;;6152983;28;80491;-72
2022/05/31 16:44:30;;;;;;;5.53;2.70;;;23.10;50.60;;;;;;6151373;28;80606;-71